Aérodrome :
LOGIN :

S'inscrire | Disclaimer

   EN    FR    IT 

 










Légende :    VFR   VFR Marginal   IFR   IFR Intensif   IFR Très Intensif
Visi : 
Plafond : 
>= 8 km
>= 3000ft
5 à 8 km
1000 à 3000 ft
1500m à 5 km
500 à 1000 ft
800 à 1500m
200 à 500 ft
< 800m
< 200 ft
Symboles :   Orages  Brouillard  Fortes neiges  Fortes précipitations  Vent > 20 kt
SIGMETs :   Divers  Orages  Givrage  Turbulence  Onde Orograph.  Cendres Volcan.






- Altitude de l'aérodrome : 459 ft
- Code IATA : CER


LFRC - Cherbourg / Maupertus

DERNIER METAR :
  • 290630Z AUTO 07006KT 5000 BR NSC 09/08 Q1022 TEMPO BKN007

METARs EXPIRÉS :
  • 290600Z AUTO 08006KT 6000 NSC 08/07 Q1021 TEMPO 3000 BR BKN007
  • 290530Z AUTO 07006KT CAVOK 08/06 Q1021 TEMPO 3000 BR BKN007
  • 290500Z AUTO 08006KT CAVOK 08/05 Q1021
  • 290430Z AUTO 09006KT CAVOK 08/05 Q1021
  • 290400Z AUTO 09006KT CAVOK 07/05 Q1021

TAF TAF LFRC
Valide du 29 à 06h jusqu'au 29 à 15h UTC


290500Z 2906/2915 08010KT CAVOK
PROB30
TEMPO 2906/2909 3000 BR
TEMPO 2906/2915 BKN007



MET'MAP, la Météo Aéronautique d'un coup d'oeil ! - Copyright ORBIFLY Décembre 2007 - Disclaimer

ORBIFLY MET'MAP TEAM :

Programmation & Développement : Alexandra Zaïnal
Sur une idée originale de : Baudouin d'Aumeries
Assistance à la programmation : Marc-Olivier Méhu
Soutien technique & logistique : Manuel Goepfert

Contact : metmap@orbifly.com




SOURCES & CREDITS :

   NOAA